createdAt,value
2023-04-20T06:21:50.209Z,12.5
2023-04-20T06:27:24.574Z,13
2023-04-20T06:33:00.557Z,13.6
2023-04-20T06:38:38.146Z,13.9
2023-04-20T06:44:14.573Z,13.9
2023-04-20T06:49:50.858Z,13.7
2023-04-20T06:55:26.152Z,13.7
2023-04-20T07:01:02.360Z,13.7
2023-04-20T07:06:37.875Z,14
2023-04-20T07:12:13.100Z,14.2
2023-04-20T07:17:50.315Z,14.5
2023-04-20T07:23:26.367Z,14.9
2023-04-20T07:29:02.935Z,15.3
2023-04-20T07:34:39.601Z,15.6
2023-04-20T07:40:16.778Z,15.6
2023-04-20T07:45:52.972Z,15.4
2023-04-20T07:51:30.143Z,15.9
2023-04-20T07:57:05.633Z,16.1
2023-04-20T08:02:42.519Z,16.2
2023-04-20T08:08:20.706Z,16.5
2023-04-20T08:13:57.884Z,16.5
2023-04-20T08:20:06.798Z,17
2023-04-20T08:25:41.478Z,17.1
2023-04-20T08:31:16.887Z,17.4
2023-04-20T08:36:52.958Z,17.5
2023-04-20T08:42:30.616Z,18
2023-04-20T08:48:06.814Z,18.8
2023-04-20T08:53:42.926Z,19
2023-04-20T08:59:22.388Z,19
2023-04-20T09:04:58.451Z,18.6
2023-04-20T09:10:35.093Z,18.9
2023-04-20T09:16:11.483Z,19.4
2023-04-20T09:21:47.578Z,19.5
2023-04-20T09:27:23.463Z,19.7
2023-04-20T09:32:59.368Z,19.4
2023-04-20T09:38:35.209Z,19.2
2023-04-20T09:44:11.324Z,19.7
2023-04-20T09:49:47.153Z,19.8
2023-04-20T09:55:23.461Z,20.1
2023-04-20T10:00:58.795Z,20.4
2023-04-20T10:06:35.782Z,20.1
2023-04-20T10:12:11.994Z,20.4
2023-04-20T10:17:47.965Z,20.4
2023-04-20T10:23:26.028Z,20.8
2023-04-20T10:29:02.096Z,20.4
2023-04-20T10:34:37.961Z,21
2023-04-20T10:40:14.501Z,20.8
2023-04-20T10:45:49.977Z,21.6
2023-04-20T10:51:26.283Z,21.2
2023-04-20T10:57:03.132Z,21.4
2023-04-20T11:02:40.374Z,21.1
2023-04-20T11:08:17.585Z,21.5
2023-04-20T11:13:54.304Z,21.9
2023-04-20T11:19:30.000Z,21.9
2023-04-20T11:25:06.073Z,22.2
2023-04-20T11:30:42.008Z,22.8
2023-04-20T11:36:17.624Z,22.6
2023-04-20T11:41:54.100Z,22.4
2023-04-20T11:47:31.056Z,23.1
2023-04-20T11:53:07.433Z,23.4
2023-04-20T11:58:44.289Z,23.6
2023-04-20T12:04:21.822Z,23.2
2023-04-20T12:10:00.610Z,23.2
2023-04-20T12:15:36.434Z,23.6
2023-04-20T12:21:13.366Z,24.2
2023-04-20T12:26:49.196Z,24.5
2023-04-20T12:32:25.141Z,24.8
2023-04-20T12:38:02.984Z,24.7
2023-04-20T12:43:40.345Z,24.6
2023-04-20T12:49:15.654Z,24.1
2023-04-20T12:54:54.402Z,24.8
2023-04-20T13:00:30.993Z,24.9
2023-04-20T13:06:07.106Z,24.9
2023-04-20T13:11:43.057Z,25
2023-04-20T13:17:18.155Z,25.2
2023-04-20T13:22:57.956Z,25.7
2023-04-20T13:28:33.746Z,25.4
2023-04-20T13:34:09.270Z,26
2023-04-20T13:39:45.200Z,26.2
2023-04-20T13:45:20.954Z,33.7
2023-04-20T13:50:58.036Z,30.6
2023-04-20T13:56:34.483Z,27.7
2023-04-20T14:02:10.278Z,26.8
2023-04-20T14:07:46.236Z,26.7
2023-04-20T14:13:22.762Z,26.8
2023-04-20T14:18:59.383Z,26.6
2023-04-20T14:24:34.538Z,29.2
2023-04-20T14:30:10.614Z,28.9
2023-04-20T14:35:47.171Z,27.9
2023-04-20T14:41:23.421Z,28.9
2023-04-20T14:46:59.724Z,27.2
2023-04-20T14:52:36.701Z,28
2023-04-20T14:58:16.020Z,30.9
2023-04-20T15:03:52.532Z,36.9
2023-04-20T15:09:31.448Z,31.9
2023-04-20T15:15:08.180Z,30.6
2023-04-20T15:21:05.506Z,33.3
2023-04-20T15:26:39.349Z,30.9
2023-04-20T15:32:15.095Z,29.1
2023-04-20T15:37:52.246Z,28.8
2023-04-20T15:43:28.892Z,27.2
2023-04-20T15:49:05.354Z,26
2023-04-20T15:54:42.413Z,25.6
2023-04-20T16:00:18.913Z,25.7
2023-04-20T16:05:54.532Z,28.5
2023-04-20T16:11:31.776Z,36.6
2023-04-20T16:17:09.000Z,37.2
2023-04-20T16:22:45.453Z,29.6
2023-04-20T16:28:21.676Z,28.1
2023-04-20T16:33:57.092Z,28.5
2023-04-20T16:39:32.836Z,31
2023-04-20T16:45:09.290Z,33.2
2023-04-20T16:50:45.637Z,32.2
2023-04-20T16:56:21.951Z,28
2023-04-20T17:01:56.890Z,25.7
2023-04-20T17:07:33.930Z,24
2023-04-20T17:13:09.293Z,23.2
2023-04-20T17:19:06.623Z,22.9
2023-04-20T17:24:39.742Z,22.5
2023-04-20T17:30:15.841Z,22
2023-04-20T17:35:51.973Z,21.4
2023-04-20T17:41:27.520Z,21
2023-04-20T17:47:03.561Z,20.7
2023-04-20T17:52:38.952Z,20.4
2023-04-20T17:58:15.103Z,19.9
2023-04-20T18:03:50.349Z,19.5
2023-04-20T18:09:28.063Z,19.2
2023-04-20T18:15:03.255Z,19
2023-04-20T18:21:05.962Z,18.8
2023-04-20T18:26:41.050Z,18.4
2023-04-20T18:32:15.881Z,18.3
2023-04-20T18:37:51.569Z,18
2023-04-20T18:43:27.308Z,17.7
2023-04-20T18:49:04.252Z,17.3
2023-04-20T18:54:40.340Z,17.2
2023-04-20T19:00:15.619Z,16.9
2023-04-20T19:05:51.353Z,16.7
2023-04-20T19:11:28.358Z,16.5
2023-04-20T19:17:05.394Z,16.1
2023-04-20T19:22:41.556Z,16
2023-04-20T19:28:17.523Z,16
2023-04-20T19:33:53.616Z,15.7
2023-04-20T19:39:34.671Z,15.6
2023-04-20T19:45:10.846Z,15.7
2023-04-20T19:50:47.413Z,16.6
2023-04-20T19:56:23.739Z,17
2023-04-20T20:01:59.266Z,17
2023-04-20T20:07:37.056Z,17.1
2023-04-20T20:13:13.300Z,17.1
2023-04-20T20:19:10.699Z,17.1
2023-04-20T20:24:46.069Z,17
2023-04-20T20:30:21.554Z,17
2023-04-20T20:35:56.518Z,17
2023-04-20T20:41:32.336Z,17
2023-04-20T20:47:09.756Z,16.9
2023-04-20T20:52:45.381Z,16.8
2023-04-20T20:58:21.197Z,16.8
2023-04-20T21:03:57.605Z,16.7
2023-04-20T21:09:35.930Z,16.6
